Nearby METAR Reports

This page may be slow to load as it queries the National Weather Service for data.

KBIS - Bismarck, North Dakota, USA
Distance from station: S 10mi, 15km
Updated: Thu, 19-Oct-2017 6:52am CDT
Clear
Clear
 Wind from ESE
Wind: ESE 3 mph , 6 km/h
Temperature: 37°F , 3°C
Dew Point: 28°F , -2°C
Humidity: 70%
Barometer: 29.82 inHg , 1009.8 hPa
Clouds: Clear
Visibility: 10 miles , 16 km
2017/10/19 11:52 KBIS 191152Z 11003KT 10SM CLR 03/M02 A2982 RMK AO2 SLP106 T00331017 10044 20011 56013
KY19 - Mandan, North Dakota, USA
Distance from station: SSW 11mi, 17km
Updated: Wed, 04-Oct-2017 6:55pm CDT
NOT Current
Mostly cloudy
Mostly cloudy
 Wind from S
Wind: S 6 mph , 9 km/h
Temperature: 55°F , 13°C
Dew Point: 37°F , 3°C
Humidity: 51%
Barometer: 30.17 inHg , 1021.7 hPa
Clouds: Mostly cloudy
Visibility: 10 miles , 16 km
Cloud details: Mostly cloudy 7000 ft
2017/10/04 23:55 KY19 042355Z AUTO 18005KT 10SM BKN070 13/03 A3017 RMK AO2
 
KDIK - Dickinson, North Dakota, USA
Distance from station: W 95mi, 154km
Updated: Thu, 19-Oct-2017 6:56am CDT
Clear
Clear
 Wind from S
Wind: S 8 mph , 13 km/h
Temperature: 41°F , 5°C
Wind Chill: 36°F , 2°C
Dew Point: 27°F , -3°C
Humidity: 57%
Barometer: 29.76 inHg , 1007.8 hPa
Clouds: Clear
Visibility: 10 miles , 16 km
2017/10/19 11:56 KDIK 191156Z AUTO 19007KT 10SM CLR 05/M03 A2976 RMK AO2 SLP088 T00501028 10072 20039 56009
KISN - Williston, North Dakota, USA
Distance from station: NNW 2mi, 2km
Updated: Thu, 19-Oct-2017 6:52am CDT
Clear
Clear
 Wind from WSW
Wind: WSW 3 mph , 6 km/h
Temperature: 36°F , 2°C
Dew Point: 28°F , -2°C
Humidity: 75%
Barometer: 29.72 inHg , 1006.4 hPa
Clouds: Clear
Visibility: 10 miles , 16 km
2017/10/19 11:52 KISN 191152Z AUTO 24003KT 10SM CLR 02/M02 A2972 RMK AO2 SLP076 T00221022 10072 20011 56011
 
KFAR - Fargo, North Dakota, USA
Distance from station: NNW 4mi, 7km
Updated: Thu, 19-Oct-2017 6:53am CDT
Clear
Clear
 Wind from SE
Wind: SE 7 mph , 11 km/h
Temperature: 37°F , 3°C
Wind Chill: 32°F , 0°C
Dew Point: 30°F , -1°C
Humidity: 75%
Barometer: 29.92 inHg , 1013.2 hPa
Clouds: Clear
Visibility: 10 miles , 16 km
2017/10/19 11:53 KFAR 191153Z 14006KT 10SM CLR 03/M01 A2992 RMK AO2 SLP138 T00331011 10050 20022 57009
KGFK - Grand Forks, North Dakota, USA
Distance from station: NNW 76mi, 123km
Updated: Thu, 19-Oct-2017 6:53am CDT
Few Clouds
Few Clouds
 Wind from S
Wind: S 6 mph , 9 km/h
Temperature: 34°F , 1°C
Wind Chill: 29°F , -2°C
Dew Point: 27°F , -3°C
Humidity: 75%
Barometer: 29.87 inHg , 1011.5 hPa
Clouds: Few Clouds
Visibility: 10 miles , 16 km
Cloud details: Few Clouds 25000 ft
2017/10/19 11:53 KGFK 191153Z 17005KT 10SM FEW250 01/M03 A2987 RMK AO2 SLP122 T00061028 10083 20006 58008 $
 
KMOT - Minot, North Dakota, USA
Distance from station: E 109mi, 175km
Updated: Thu, 19-Oct-2017 6:54am CDT
Clear
Clear
 Wind from S
Wind: S 12 mph , 19 km/h
Temperature: 46°F , 8°C
Wind Chill: 40°F , 4°C
Dew Point: 28°F , -2°C
Humidity: 50%
Barometer: 29.72 inHg , 1006.4 hPa
Clouds: Clear
Visibility: 10 miles , 16 km
2017/10/19 11:54 KMOT 191154Z 17010KT 10SM CLR 08/M02 A2972 RMK AO2 SLP071 T00831022 10100 20028 56021
KGDV - Glendive, Montana, USA
Distance from station: W 3mi, 6km
Updated: Thu, 19-Oct-2017 6:56am CDT
Clear
Clear
 Wind from S
Wind: S 7 mph , 11 km/h
Temperature: 45°F , 7°C
Wind Chill: 41°F , 5°C
Dew Point: 30°F , -1°C
Humidity: 57%
Barometer: 29.76 inHg , 1007.8 hPa
Clouds: Clear
Visibility: 10 miles , 16 km
2017/10/19 11:56 KGDV 191156Z AUTO 17006KT 10SM CLR 07/M01 A2976 RMK AO2 SLP082 T00671011 10072 20056 56006